Weather at Campo di Volo Paretano Fly

Public forecast

Using degrees Celsius for public forecast. Weather courtesy of forecast.io.

Closest aviation weather report (METAR) to Campo di Volo Paretano Fly

Closest report is Gioia Del Colle Air Base, 16.3 nm (30.3 km) WSW.

2024/02/23 05:55 (retrieved 46 minutes ago)

LIBV 230555Z 16008KT 7000 NSC 08/06 Q1011

Closest aviation forecast (TAF) to Campo di Volo Paretano Fly

Closest forecast is Bari Karol Wojtyła Airport, 30.5 nm (56.4 km) NW.

2024/02/23 06:21 (retrieved 20 minutes ago)

TAF LIBD 230500Z 2306/2406 18012KT CAVOK